createdAt,value
2018-08-17T00:01:04.947Z,4.70
2018-08-17T00:03:35.335Z,4.93
2018-08-17T00:06:26.074Z,3.83
2018-08-17T00:08:56.456Z,5.70
2018-08-17T00:11:45.190Z,5.90
2018-08-17T00:14:15.581Z,6.03
2018-08-17T00:16:45.971Z,4.47
2018-08-17T00:19:16.384Z,5.87
2018-08-17T00:21:47.785Z,4.87
2018-08-17T00:24:18.173Z,4.37
2018-08-17T00:26:50.623Z,5.10
2018-08-17T00:29:21.012Z,3.97
2018-08-17T00:31:51.332Z,4.30
2018-08-17T00:34:21.729Z,5.00
2018-08-17T00:37:11.214Z,4.27
2018-08-17T00:39:42.393Z,5.50
2018-08-17T00:42:13.524Z,5.60
2018-08-17T00:44:43.900Z,4.93
2018-08-17T00:47:14.328Z,4.07
2018-08-17T00:49:44.930Z,5.10
2018-08-17T00:52:16.075Z,5.43
2018-08-17T00:54:47.259Z,5.03
2018-08-17T00:57:21.743Z,4.30
2018-08-17T00:59:52.136Z,4.83
2018-08-17T01:02:22.542Z,5.10
2018-08-17T01:05:14.338Z,4.43
2018-08-17T01:07:44.745Z,5.43
2018-08-17T01:10:15.889Z,5.33
2018-08-17T01:12:47.041Z,5.60
2018-08-17T01:15:18.196Z,5.07
2018-08-17T01:17:48.584Z,4.63
2018-08-17T01:20:18.962Z,4.63
2018-08-17T01:22:49.371Z,5.07
2018-08-17T01:25:20.788Z,4.30
2018-08-17T01:27:51.178Z,4.67
2018-08-17T01:30:27.727Z,5.50
2018-08-17T01:32:58.107Z,4.97
2018-08-17T01:35:28.480Z,4.07
2018-08-17T01:37:59.104Z,4.27
2018-08-17T01:40:29.496Z,3.80
2018-08-17T01:42:59.884Z,5.23
2018-08-17T01:45:33.359Z,5.20
2018-08-17T01:48:03.752Z,4.03
2018-08-17T01:50:34.129Z,3.70
2018-08-17T01:53:04.564Z,3.97
2018-08-17T01:55:35.688Z,3.73
2018-08-17T01:58:06.079Z,5.20
2018-08-17T02:00:36.480Z,4.13
2018-08-17T02:03:06.872Z,3.90
2018-08-17T02:05:37.268Z,3.50
2018-08-17T02:08:07.670Z,4.03
2018-08-17T02:10:38.060Z,3.93
2018-08-17T02:13:10.482Z,4.13
2018-08-17T02:15:42.934Z,3.33
2018-08-17T02:18:13.314Z,3.70
2018-08-17T02:20:43.704Z,3.73
2018-08-17T02:23:14.105Z,3.60
2018-08-17T02:25:44.504Z,3.50
2018-08-17T02:28:14.898Z,3.67
2018-08-17T02:30:45.316Z,3.67
2018-08-17T02:33:15.695Z,4.20
2018-08-17T02:35:46.076Z,4.13
2018-08-17T02:38:16.457Z,3.47
2018-08-17T02:40:53.939Z,3.30
2018-08-17T02:43:24.358Z,3.70
2018-08-17T02:45:54.749Z,4.17
2018-08-17T02:48:25.152Z,3.30
2018-08-17T02:50:55.554Z,3.30
2018-08-17T02:56:14.698Z,2.47
2018-08-17T02:58:45.836Z,2.60
2018-08-17T03:01:16.231Z,2.83
2018-08-17T03:03:46.645Z,2.20
2018-08-17T03:06:39.201Z,2.23
2018-08-17T03:09:09.613Z,2.93
2018-08-17T03:11:46.140Z,2.70
2018-08-17T03:14:17.320Z,2.47
2018-08-17T03:16:47.652Z,3.10
2018-08-17T03:19:25.386Z,1.83
2018-08-17T03:21:55.782Z,2.03
2018-08-17T03:24:28.207Z,2.43
2018-08-17T03:26:59.384Z,4.40
2018-08-17T03:29:29.997Z,4.83
2018-08-17T03:32:01.146Z,1.80
2018-08-17T03:34:31.781Z,4.13
2018-08-17T03:37:03.201Z,2.70
2018-08-17T03:39:33.567Z,3.60
2018-08-17T03:42:03.965Z,2.93
2018-08-17T03:44:35.108Z,3.00
2018-08-17T03:47:06.262Z,4.47
2018-08-17T03:49:37.444Z,3.33
2018-08-17T03:52:07.834Z,2.93
2018-08-17T03:54:38.158Z,6.07
2018-08-17T03:57:09.260Z,5.23
2018-08-17T03:59:41.568Z,5.87
2018-08-17T04:02:12.737Z,3.50
2018-08-17T04:04:43.153Z,5.43
2018-08-17T04:07:14.491Z,7.13
2018-08-17T04:09:44.874Z,5.67
2018-08-17T04:12:15.296Z,3.50
2018-08-17T04:14:51.819Z,3.70
2018-08-17T04:17:22.267Z,7.67
2018-08-17T04:19:52.648Z,4.83
2018-08-17T04:22:23.035Z,7.30
2018-08-17T04:24:53.445Z,3.63
2018-08-17T04:27:23.831Z,5.27
2018-08-17T04:29:54.227Z,3.60
2018-08-17T04:32:46.038Z,6.83
2018-08-17T04:35:20.551Z,5.40
2018-08-17T04:37:51.699Z,4.67
2018-08-17T04:40:22.096Z,6.93
2018-08-17T04:42:53.253Z,2.57
2018-08-17T04:45:23.888Z,7.33
2018-08-17T04:47:55.044Z,5.63
2018-08-17T04:50:25.423Z,5.10
2018-08-17T04:52:55.836Z,4.83
2018-08-17T04:55:26.149Z,9.40
2018-08-17T04:58:00.626Z,6.63
2018-08-17T05:00:31.039Z,6.93
2018-08-17T05:03:02.217Z,10.63
2018-08-17T05:05:32.617Z,4.13
2018-08-17T05:08:03.802Z,6.30
2018-08-17T05:10:41.345Z,6.50
2018-08-17T05:13:11.758Z,6.40
2018-08-17T05:15:42.347Z,4.93
2018-08-17T05:18:12.740Z,6.03
2018-08-17T05:20:43.925Z,6.47
2018-08-17T05:23:20.731Z,4.90
2018-08-17T05:25:51.083Z,5.90
2018-08-17T05:28:22.229Z,6.30
2018-08-17T05:30:53.632Z,4.50
2018-08-17T05:33:24.043Z,5.27
2018-08-17T05:35:54.475Z,6.10
2018-08-17T05:38:25.573Z,8.67
2018-08-17T05:40:58.812Z,5.97
2018-08-17T05:43:29.193Z,4.43
2018-08-17T05:46:00.343Z,4.77
2018-08-17T05:48:30.694Z,4.57
2018-08-17T05:51:01.084Z,4.77
2018-08-17T05:53:31.472Z,4.57
2018-08-17T05:56:01.882Z,6.53
2018-08-17T05:58:33.994Z,4.30
2018-08-17T06:01:04.396Z,5.27
2018-08-17T06:03:35.836Z,9.07
2018-08-17T06:06:08.267Z,6.10
2018-08-17T06:08:39.407Z,4.23
2018-08-17T06:11:09.938Z,9.30
2018-08-17T06:13:40.200Z,4.50
2018-08-17T06:16:10.583Z,5.53
2018-08-17T06:18:41.767Z,6.60
2018-08-17T06:21:12.196Z,8.57
2018-08-17T06:23:42.584Z,9.03
2018-08-17T06:26:13.000Z,7.73
2018-08-17T06:28:43.399Z,5.63
2018-08-17T06:31:13.780Z,4.00
2018-08-17T06:33:44.972Z,4.70
2018-08-17T06:36:16.388Z,5.50
2018-08-17T06:38:46.769Z,7.90
2018-08-17T06:41:17.188Z,8.80
2018-08-17T06:43:47.584Z,9.10
2018-08-17T06:46:20.006Z,5.20
2018-08-17T06:48:50.425Z,6.23
2018-08-17T06:51:20.820Z,5.17
2018-08-17T06:53:51.225Z,7.07
2018-08-17T06:56:21.639Z,10.63
2018-08-17T06:58:52.088Z,6.63
2018-08-17T07:01:22.400Z,7.83
2018-08-17T07:03:52.816Z,8.60
2018-08-17T07:06:23.972Z,6.47
2018-08-17T07:11:41.734Z,7.50
2018-08-17T07:14:12.118Z,8.60
2018-08-17T07:16:42.594Z,9.50
2018-08-17T07:19:13.676Z,7.13
2018-08-17T07:21:44.162Z,10.47
2018-08-17T07:24:14.442Z,11.70
2018-08-17T07:26:44.787Z,8.87
2018-08-17T07:29:15.182Z,9.63
2018-08-17T07:31:45.585Z,11.30
2018-08-17T07:34:16.011Z,10.27
2018-08-17T07:36:53.721Z,8.10
2018-08-17T07:39:24.130Z,7.97
2018-08-17T07:42:01.840Z,7.60
2018-08-17T07:44:32.254Z,7.17
2018-08-17T07:47:06.743Z,10.10
2018-08-17T07:49:37.177Z,7.97
2018-08-17T07:52:07.551Z,9.83
2018-08-17T07:54:37.939Z,12.33
2018-08-17T07:57:08.347Z,6.50
2018-08-17T07:59:38.731Z,9.40
2018-08-17T08:02:10.156Z,10.53
2018-08-17T08:04:42.819Z,12.07
2018-08-17T08:07:13.221Z,8.23
2018-08-17T08:09:45.423Z,7.53
2018-08-17T08:12:15.827Z,7.77
2018-08-17T08:14:46.995Z,9.47
2018-08-17T08:17:17.390Z,8.87
2018-08-17T08:19:48.853Z,5.63
2018-08-17T08:22:19.245Z,6.33
2018-08-17T08:24:49.638Z,9.83
2018-08-17T08:27:20.062Z,6.67
2018-08-17T08:29:50.453Z,8.00
2018-08-17T08:32:21.634Z,9.03
2018-08-17T08:34:52.042Z,8.50
2018-08-17T08:37:23.314Z,7.80
2018-08-17T08:39:53.751Z,7.30
2018-08-17T08:42:24.817Z,7.83
2018-08-17T08:44:55.218Z,7.00
2018-08-17T08:47:27.637Z,4.53
2018-08-17T08:49:58.897Z,6.30
2018-08-17T08:52:29.288Z,7.13
2018-08-17T08:54:59.692Z,7.23
2018-08-17T08:57:30.111Z,6.37
2018-08-17T09:00:02.571Z,6.67
2018-08-17T09:02:32.986Z,6.83
2018-08-17T09:05:03.406Z,5.13
2018-08-17T09:07:34.571Z,8.03
2018-08-17T09:10:04.950Z,6.60
2018-08-17T09:12:36.092Z,8.33
2018-08-17T09:15:06.528Z,10.13
2018-08-17T09:17:36.929Z,8.30
2018-08-17T09:20:07.393Z,5.73
2018-08-17T09:22:37.756Z,5.10
2018-08-17T09:25:09.153Z,5.47
2018-08-17T09:27:39.579Z,7.40
2018-08-17T09:30:10.014Z,9.40
2018-08-17T09:32:43.469Z,7.93
2018-08-17T09:35:32.923Z,9.30
2018-08-17T09:38:03.325Z,7.67
2018-08-17T09:40:33.714Z,7.97
2018-08-17T09:43:10.246Z,6.53
2018-08-17T09:45:40.633Z,6.87
2018-08-17T09:48:11.012Z,8.37
2018-08-17T09:50:41.494Z,5.30
2018-08-17T09:53:12.648Z,6.00
2018-08-17T09:55:43.733Z,9.67
2018-08-17T09:58:14.144Z,5.50
2018-08-17T10:00:44.533Z,5.50
2018-08-17T10:03:14.864Z,4.40
2018-08-17T10:05:46.054Z,9.50
2018-08-17T10:08:22.513Z,5.63
2018-08-17T10:10:52.851Z,4.00
2018-08-17T10:13:23.242Z,6.80
2018-08-17T10:15:54.500Z,14.50
2018-08-17T10:18:24.838Z,6.03
2018-08-17T10:20:55.480Z,6.90
2018-08-17T10:23:27.411Z,6.13
2018-08-17T10:25:57.838Z,6.20
2018-08-17T10:28:29.627Z,8.47
2018-08-17T10:31:06.331Z,5.93
2018-08-17T10:33:36.728Z,7.10
2018-08-17T10:36:07.131Z,6.47
2018-08-17T10:38:37.543Z,4.67
2018-08-17T10:41:08.713Z,3.80
2018-08-17T10:43:39.118Z,3.77
2018-08-17T10:46:10.276Z,5.23
2018-08-17T10:48:40.698Z,5.73
2018-08-17T10:51:11.067Z,4.70
2018-08-17T10:53:42.449Z,6.60
2018-08-17T10:56:12.846Z,5.10
2018-08-17T10:58:43.247Z,6.40
2018-08-17T11:01:13.653Z,3.47
2018-08-17T11:03:44.813Z,3.83
2018-08-17T11:06:15.207Z,8.00
2018-08-17T11:08:46.403Z,6.90
2018-08-17T11:11:16.785Z,5.57
2018-08-17T11:13:47.182Z,6.50
2018-08-17T11:16:17.525Z,4.00
2018-08-17T11:18:48.967Z,4.53
2018-08-17T11:21:19.361Z,4.70
2018-08-17T11:23:49.713Z,6.50
2018-08-17T11:29:08.222Z,5.80
2018-08-17T11:31:39.377Z,5.43
2018-08-17T11:34:09.768Z,5.07
2018-08-17T11:36:40.195Z,4.33
2018-08-17T11:39:10.583Z,5.60
2018-08-17T11:42:03.180Z,6.30
2018-08-17T11:44:34.332Z,7.00
2018-08-17T11:47:04.737Z,7.77
2018-08-17T11:49:35.166Z,4.87
2018-08-17T11:52:05.563Z,5.13
2018-08-17T11:54:36.983Z,5.40
2018-08-17T11:57:07.334Z,4.47
2018-08-17T11:59:38.756Z,7.07
2018-08-17T12:02:09.142Z,6.37
2018-08-17T12:04:39.544Z,3.67
2018-08-17T12:07:10.961Z,3.70
2018-08-17T12:09:41.337Z,5.60
2018-08-17T12:12:11.755Z,6.70
2018-08-17T12:14:42.139Z,6.47
2018-08-17T12:17:13.492Z,9.37
2018-08-17T12:19:43.888Z,8.00
2018-08-17T12:22:15.238Z,6.13
2018-08-17T12:24:46.507Z,3.63
2018-08-17T12:27:16.824Z,3.33
2018-08-17T12:29:47.968Z,5.13
2018-08-17T12:32:18.381Z,7.60
2018-08-17T12:34:51.616Z,4.90
2018-08-17T12:37:24.061Z,4.43
2018-08-17T12:39:57.271Z,5.53
2018-08-17T12:42:27.681Z,4.73
2018-08-17T12:44:58.082Z,4.87
2018-08-17T12:47:28.477Z,5.93
2018-08-17T12:50:03.002Z,4.23
2018-08-17T12:52:52.499Z,6.43
2018-08-17T12:55:22.918Z,6.17
2018-08-17T12:57:53.321Z,5.27
2018-08-17T13:00:23.696Z,5.90
2018-08-17T13:02:54.903Z,5.70
2018-08-17T13:05:46.688Z,10.43
2018-08-17T13:08:17.115Z,4.10
2018-08-17T13:10:50.326Z,5.77
2018-08-17T13:13:20.720Z,4.13
2018-08-17T13:15:52.195Z,4.07
2018-08-17T13:18:22.585Z,7.43
2018-08-17T13:20:52.991Z,3.73
2018-08-17T13:23:23.406Z,6.90
2018-08-17T13:26:13.107Z,3.27
2018-08-17T13:28:43.527Z,4.53
2018-08-17T13:31:14.558Z,2.73
2018-08-17T13:33:44.987Z,3.73
2018-08-17T13:36:15.533Z,3.30
2018-08-17T13:38:45.803Z,4.10
2018-08-17T13:41:16.196Z,4.13
2018-08-17T13:43:46.608Z,3.73
2018-08-17T13:46:16.988Z,6.00
2018-08-17T13:48:47.392Z,4.00
2018-08-17T13:51:18.582Z,4.20
2018-08-17T13:53:55.116Z,3.53
2018-08-17T13:56:25.564Z,3.53
2018-08-17T13:58:55.950Z,2.90
2018-08-17T14:01:26.343Z,3.47
2018-08-17T14:03:58.806Z,3.30
2018-08-17T14:06:30.436Z,4.90
2018-08-17T14:09:01.066Z,4.27
2018-08-17T14:11:31.495Z,4.47
2018-08-17T14:14:01.900Z,2.83
2018-08-17T14:16:32.988Z,4.70
2018-08-17T14:19:04.430Z,4.87
2018-08-17T14:21:34.841Z,4.53
2018-08-17T14:24:05.270Z,4.47
2018-08-17T14:26:35.703Z,2.43
2018-08-17T14:29:06.086Z,3.93
2018-08-17T14:31:36.475Z,5.83
2018-08-17T14:34:09.007Z,2.27
2018-08-17T14:36:39.368Z,2.13
2018-08-17T14:39:09.768Z,3.53
2018-08-17T14:41:40.937Z,3.53
2018-08-17T14:44:11.349Z,2.13
2018-08-17T14:46:41.734Z,3.97
2018-08-17T14:49:12.159Z,3.60
2018-08-17T14:54:30.430Z,3.63
2018-08-17T14:57:00.747Z,5.03
2018-08-17T14:59:31.141Z,2.37
2018-08-17T15:02:01.570Z,4.47
2018-08-17T15:04:34.002Z,3.77
2018-08-17T15:07:04.450Z,4.57
2018-08-17T15:09:36.768Z,3.43
2018-08-17T15:12:07.161Z,5.07
2018-08-17T15:14:37.561Z,4.60
2018-08-17T15:17:08.748Z,3.27
2018-08-17T15:19:39.147Z,3.30
2018-08-17T15:22:10.300Z,7.20
2018-08-17T15:24:40.732Z,3.13
2018-08-17T15:27:11.110Z,3.13
2018-08-17T15:29:41.494Z,4.30
2018-08-17T15:32:11.995Z,2.27
2018-08-17T15:34:44.573Z,4.80
2018-08-17T15:37:15.742Z,2.20
2018-08-17T15:39:46.158Z,3.50
2018-08-17T15:42:16.549Z,2.63
2018-08-17T15:44:46.941Z,4.93
2018-08-17T15:47:36.731Z,1.57
2018-08-17T15:50:07.109Z,2.30
2018-08-17T15:52:37.508Z,3.87
2018-08-17T15:55:07.922Z,3.93
2018-08-17T15:57:38.447Z,3.07
2018-08-17T16:00:16.582Z,4.30
2018-08-17T16:02:47.755Z,4.23
2018-08-17T16:05:18.172Z,2.30
2018-08-17T16:07:48.583Z,1.73
2018-08-17T16:10:19.777Z,2.60
2018-08-17T16:12:50.164Z,2.10
2018-08-17T16:15:21.345Z,3.63
2018-08-17T16:17:56.843Z,2.23
2018-08-17T16:20:27.287Z,3.67
2018-08-17T16:22:58.444Z,3.27
2018-08-17T16:25:28.856Z,2.30
2018-08-17T16:28:00.047Z,1.87
2018-08-17T16:30:31.464Z,3.20
2018-08-17T16:33:02.608Z,1.70
2018-08-17T16:35:33.040Z,2.93
2018-08-17T16:38:03.365Z,6.60
2018-08-17T16:40:33.753Z,1.20
2018-08-17T16:43:04.183Z,1.23
2018-08-17T16:45:34.573Z,3.37
2018-08-17T16:48:26.398Z,3.93
2018-08-17T16:50:56.797Z,2.27
2018-08-17T16:53:27.123Z,3.17
2018-08-17T16:55:58.495Z,3.57
2018-08-17T16:58:28.882Z,2.40
2018-08-17T17:01:00.148Z,1.87
2018-08-17T17:03:30.476Z,1.27
2018-08-17T17:06:00.880Z,2.83
2018-08-17T17:08:32.027Z,4.87
2018-08-17T17:11:02.442Z,3.33
2018-08-17T17:13:33.597Z,1.57
2018-08-17T17:16:04.762Z,1.90
2018-08-17T17:18:35.190Z,1.33
2018-08-17T17:21:05.593Z,2.07
2018-08-17T17:23:36.753Z,1.60
2018-08-17T17:26:07.164Z,2.93
2018-08-17T17:28:38.513Z,1.33
2018-08-17T17:31:09.659Z,3.23
2018-08-17T17:33:42.812Z,2.33
2018-08-17T17:36:13.183Z,3.90
2018-08-17T17:38:43.581Z,2.00
2018-08-17T17:41:13.933Z,1.73
2018-08-17T17:43:44.318Z,1.20
2018-08-17T17:46:14.702Z,2.53
2018-08-17T17:48:45.326Z,3.77
2018-08-17T17:51:15.736Z,3.00
2018-08-17T17:53:46.882Z,2.87
2018-08-17T17:56:18.062Z,2.07
2018-08-17T17:58:48.457Z,1.70
2018-08-17T18:01:18.881Z,2.37
2018-08-17T18:03:50.074Z,3.30
2018-08-17T18:06:22.499Z,2.63
2018-08-17T18:08:53.662Z,2.47
2018-08-17T18:11:24.075Z,2.03
2018-08-17T18:13:55.216Z,2.10
2018-08-17T18:16:26.358Z,3.90
2018-08-17T18:18:57.541Z,3.50
2018-08-17T18:21:29.967Z,2.97
2018-08-17T18:24:00.365Z,2.57
2018-08-17T18:26:30.797Z,2.00
2018-08-17T18:29:01.189Z,1.97
2018-08-17T18:31:31.666Z,3.13
2018-08-17T18:34:02.036Z,4.73
2018-08-17T18:36:32.422Z,5.20
2018-08-17T18:39:02.817Z,2.73
2018-08-17T18:41:40.466Z,2.57
2018-08-17T18:44:11.007Z,4.60
2018-08-17T18:46:41.534Z,2.50
2018-08-17T18:49:11.924Z,2.33
2018-08-17T18:51:42.323Z,3.60
2018-08-17T18:54:20.057Z,1.90
2018-08-17T18:56:50.507Z,5.63
2018-08-17T18:59:20.832Z,2.87
2018-08-17T19:01:51.997Z,2.67
2018-08-17T19:07:13.396Z,5.47
2018-08-17T19:09:43.791Z,4.47
2018-08-17T19:12:24.288Z,5.90
2018-08-17T19:14:54.689Z,2.43
2018-08-17T19:17:25.077Z,3.17
2018-08-17T19:19:58.229Z,3.40
2018-08-17T19:22:28.612Z,2.70
2018-08-17T19:24:59.002Z,5.10
2018-08-17T19:27:30.187Z,3.93
2018-08-17T19:30:08.880Z,5.03
2018-08-17T19:32:39.308Z,2.90
2018-08-17T19:35:09.629Z,2.57
2018-08-17T19:37:41.817Z,3.07
2018-08-17T19:40:12.158Z,2.13
2018-08-17T19:42:42.553Z,4.00
2018-08-17T19:45:15.565Z,3.07
2018-08-17T19:47:48.023Z,5.70
2018-08-17T19:50:18.426Z,2.87
2018-08-17T19:52:49.653Z,2.87
2018-08-17T19:55:23.492Z,4.30
2018-08-17T19:57:56.471Z,2.70
2018-08-17T20:00:27.627Z,2.07
2018-08-17T20:02:58.257Z,3.83
2018-08-17T20:05:28.653Z,4.63
2018-08-17T20:07:59.043Z,3.27
2018-08-17T20:10:29.457Z,4.60
2018-08-17T20:12:59.848Z,4.33
2018-08-17T20:15:31.010Z,4.60
2018-08-17T20:18:01.432Z,2.93
2018-08-17T20:20:32.579Z,4.87
2018-08-17T20:23:03.737Z,3.93
2018-08-17T20:25:34.171Z,5.47
2018-08-17T20:28:04.550Z,5.00
2018-08-17T20:30:34.931Z,3.73
2018-08-17T20:33:09.119Z,4.20
2018-08-17T20:35:40.276Z,7.63
2018-08-17T20:38:10.672Z,3.10
2018-08-17T20:40:41.090Z,3.23
2018-08-17T20:43:11.479Z,6.53
2018-08-17T20:45:41.859Z,3.67
2018-08-17T20:48:14.072Z,4.13
2018-08-17T20:50:46.518Z,5.97
2018-08-17T20:53:16.911Z,3.07
2018-08-17T20:55:47.271Z,4.47
2018-08-17T20:58:19.110Z,3.53
2018-08-17T21:00:49.488Z,4.20
2018-08-17T21:03:39.013Z,3.10
2018-08-17T21:06:10.150Z,2.53
2018-08-17T21:08:41.309Z,3.47
2018-08-17T21:11:12.487Z,4.23
2018-08-17T21:13:43.590Z,3.20
2018-08-17T21:16:14.750Z,3.60
2018-08-17T21:18:45.174Z,4.60
2018-08-17T21:21:16.346Z,5.43
2018-08-17T21:23:46.727Z,3.57
2018-08-17T21:26:17.927Z,4.50
2018-08-17T21:28:52.496Z,3.37
2018-08-17T21:31:22.654Z,4.03
2018-08-17T21:33:53.147Z,3.20
2018-08-17T21:36:23.452Z,3.07
2018-08-17T21:38:53.842Z,5.73
2018-08-17T21:41:24.275Z,4.47
2018-08-17T21:43:54.638Z,4.53
2018-08-17T21:46:25.020Z,3.10
2018-08-17T21:48:55.365Z,4.80
2018-08-17T21:51:25.765Z,5.10
2018-08-17T21:53:56.155Z,3.50
2018-08-17T21:56:26.547Z,3.07
2018-08-17T21:58:56.949Z,2.63
2018-08-17T22:01:27.272Z,3.20
2018-08-17T22:03:57.764Z,5.33
2018-08-17T22:06:28.085Z,4.87
2018-08-17T22:08:58.470Z,3.80
2018-08-17T22:11:28.902Z,5.30
2018-08-17T22:14:18.672Z,5.27
2018-08-17T22:16:53.194Z,8.50
2018-08-17T22:19:25.631Z,2.53
2018-08-17T22:21:56.865Z,4.00
2018-08-17T22:24:27.212Z,2.73
2018-08-17T22:26:58.361Z,3.57
2018-08-17T22:29:28.812Z,3.27
2018-08-17T22:31:59.205Z,5.00
2018-08-17T22:34:30.346Z,5.07
2018-08-17T22:37:01.697Z,2.07
2018-08-17T22:39:32.891Z,5.20
2018-08-17T22:42:24.764Z,4.30
2018-08-17T22:44:55.118Z,4.10
2018-08-17T22:47:25.453Z,6.20
2018-08-17T22:49:55.835Z,3.20
2018-08-17T22:52:26.195Z,4.70
2018-08-17T22:54:56.522Z,2.63
2018-08-17T22:57:26.909Z,3.17
2018-08-17T23:02:44.051Z,6.70
2018-08-17T23:05:14.398Z,3.07
2018-08-17T23:07:44.721Z,3.87
2018-08-17T23:10:15.134Z,4.20
2018-08-17T23:12:45.478Z,5.27
2018-08-17T23:15:15.797Z,2.70
2018-08-17T23:17:47.152Z,4.10
2018-08-17T23:20:18.348Z,5.27
2018-08-17T23:22:48.746Z,8.17
2018-08-17T23:25:19.141Z,5.33
2018-08-17T23:27:50.332Z,3.27
2018-08-17T23:30:20.726Z,3.33
2018-08-17T23:32:51.939Z,6.13
2018-08-17T23:35:22.291Z,2.60
2018-08-17T23:37:52.678Z,3.67
2018-08-17T23:40:23.077Z,2.63
2018-08-17T23:42:53.501Z,4.97
2018-08-17T23:45:24.917Z,4.47
2018-08-17T23:47:55.295Z,5.00
2018-08-17T23:50:25.704Z,4.60
2018-08-17T23:52:57.125Z,3.67
2018-08-17T23:55:28.287Z,3.20
2018-08-17T23:57:58.713Z,3.63
